Time;durP1;ratioP1;P1;durP2;ratioP2;P2;SDS_P1;SDS_P2;PMS_P1;PMS_P2;Temp;Humidity;BMP_temperature;BMP_pressure;BME280_temperature;BME280_humidity;BME280_pressure;Samples;Min_cycle;Max_cycle;Signal;HPM_P1;HPM_P2
2022/07/11 00:01:16;;;;;;;2.87;1.00;;;;;;;;;;5032811;28;20559;-70
2022/07/11 00:03:44;;;;;;;3.30;1.33;;;;;;;;;;5035581;28;20450;-70
2022/07/11 00:06:12;;;;;;;8.07;1.77;;;;;;;;;;5035863;28;20457;-70
2022/07/11 00:08:40;;;;;;;6.60;1.50;;;;;;;;;;5034720;28;20473;-70
2022/07/11 00:11:08;;;;;;;3.73;1.30;;;;;;;;;;5033385;28;20490;-69
2022/07/11 00:13:37;;;;;;;4.00;1.30;;;;;;;;;;5033551;28;20481;-70
2022/07/11 00:16:05;;;;;;;4.73;1.40;;;;;;;;;;5034001;28;20454;-70
2022/07/11 00:18:33;;;;;;;6.27;1.60;;;;;;;;;;5033304;28;20477;-70
2022/07/11 00:21:01;;;;;;;3.57;2.30;;;;;;;;;;5034179;28;20715;-70
2022/07/11 00:23:29;;;;;;;3.93;1.73;;;;;;;;;;5033950;28;20473;-70
2022/07/11 00:26:00;;;;;;;3.60;1.80;;;;;;;;;;5033701;28;20862;-69
2022/07/11 00:28:30;;;;;;;5.10;1.50;;;;;;;;;;5034852;28;20611;-70
2022/07/11 00:31:03;;;;;;;2.83;1.27;;;;;;;;;;5032874;28;20481;-70
2022/07/11 00:33:31;;;;;;;4.00;1.93;;;;;;;;;;5033999;28;20524;-70
2022/07/11 00:35:59;;;;;;;4.80;1.57;;;;;;;;;;5032861;28;20553;-70
2022/07/11 00:38:27;;;;;;;3.30;1.13;;;;;;;;;;5033935;28;20517;-70
2022/07/11 00:40:54;;;;;;;8.33;3.73;;;;;;;;;;5033508;28;20458;-70
2022/07/11 00:43:31;;;;;;;4.17;1.43;;;;;;;;;;5033309;28;20626;-70
2022/07/11 00:45:59;;;;;;;4.93;1.90;;;;;;;;;;5033399;28;20457;-70
2022/07/11 00:48:28;;;;;;;4.47;1.30;;;;;;;;;;5033593;28;20695;-70
2022/07/11 00:50:56;;;;;;;2.10;1.30;;;;;;;;;;5037265;28;20492;-70
2022/07/11 00:53:24;;;;;;;6.03;1.93;;;;;;;;;;5036705;28;20494;-70
2022/07/11 00:55:53;;;;;;;4.20;1.50;;;;;;;;;;5036095;28;20462;-70
2022/07/11 00:58:21;;;;;;;4.80;1.67;;;;;;;;;;5036857;28;20477;-70
2022/07/11 01:00:49;;;;;;;3.00;1.50;;;;;;;;;;5037260;28;20476;-70
2022/07/11 01:03:17;;;;;;;7.07;1.70;;;;;;;;;;5036407;28;20622;-70
2022/07/11 01:05:46;;;;;;;5.73;1.40;;;;;;;;;;5036577;28;20520;-69
2022/07/11 01:08:14;;;;;;;4.37;1.63;;;;;;;;;;5037344;28;20462;-70
2022/07/11 01:10:42;;;;;;;2.97;1.30;;;;;;;;;;5035937;28;20874;-70
2022/07/11 01:13:10;;;;;;;6.17;1.70;;;;;;;;;;5036394;28;20698;-70
2022/07/11 01:15:38;;;;;;;3.43;1.47;;;;;;;;;;5036328;28;20454;-70
2022/07/11 01:18:09;;;;;;;4.13;1.63;;;;;;;;;;5036553;28;20450;-70
2022/07/11 01:20:37;;;;;;;4.10;1.30;;;;;;;;;;5036480;28;20473;-70
2022/07/11 01:23:07;;;;;;;4.10;1.37;;;;;;;;;;5036247;28;20493;-70
2022/07/11 01:25:35;;;;;;;4.57;1.40;;;;;;;;;;5037323;28;20446;-70
2022/07/11 01:28:04;;;;;;;3.00;1.37;;;;;;;;;;5036719;28;20462;-70
2022/07/11 01:30:33;;;;;;;5.90;1.70;;;;;;;;;;5036706;28;20455;-70
2022/07/11 01:33:01;;;;;;;3.83;1.43;;;;;;;;;;5036754;28;20496;-70
2022/07/11 01:35:30;;;;;;;8.47;1.40;;;;;;;;;;5035986;28;21015;-70
2022/07/11 01:38:04;;;;;;;5.17;1.40;;;;;;;;;;5036552;28;20466;-70
2022/07/11 01:40:33;;;;;;;4.93;1.40;;;;;;;;;;5037119;28;20461;-70
2022/07/11 01:43:01;;;;;;;6.20;1.73;;;;;;;;;;5036605;28;20884;-69
2022/07/11 01:45:29;;;;;;;7.90;2.00;;;;;;;;;;5032423;28;20455;-70
2022/07/11 01:47:57;;;;;;;3.17;1.10;;;;;;;;;;5017785;28;20467;-70
2022/07/11 01:50:25;;;;;;;4.90;1.37;;;;;;;;;;5018606;28;20899;-70
2022/07/11 01:52:52;;;;;;;4.00;1.80;;;;;;;;;;5016780;28;20857;-70
2022/07/11 01:55:20;;;;;;;2.40;1.30;;;;;;;;;;5017710;28;20872;-70
2022/07/11 01:57:51;;;;;;;2.53;1.17;;;;;;;;;;5017316;28;20451;-70
2022/07/11 02:00:19;;;;;;;5.80;1.50;;;;;;;;;;5017117;28;20574;-69
2022/07/11 02:02:47;;;;;;;2.90;1.37;;;;;;;;;;5018021;28;20463;-70
2022/07/11 02:05:15;;;;;;;4.33;1.80;;;;;;;;;;5017936;28;20582;-70
2022/07/11 02:10:29;;;;;;;3.67;1.20;;;;;;;;;;5017310;28;21028;-69
2022/07/11 02:12:59;;;;;;;2.10;0.90;;;;;;;;;;5017358;28;20506;-69
2022/07/11 02:15:27;;;;;;;4.13;1.23;;;;;;;;;;5017051;28;20463;-69
2022/07/11 02:17:54;;;;;;;3.73;1.30;;;;;;;;;;5017665;28;20534;-69
2022/07/11 02:20:23;;;;;;;4.17;1.30;;;;;;;;;;5016385;28;20468;-69
2022/07/11 02:22:51;;;;;;;7.40;1.50;;;;;;;;;;5017289;28;20539;-69
2022/07/11 02:25:19;;;;;;;2.33;1.10;;;;;;;;;;5017144;28;20489;-69
2022/07/11 02:27:47;;;;;;;5.37;1.17;;;;;;;;;;5016734;28;20534;-69
2022/07/11 02:30:16;;;;;;;5.43;1.07;;;;;;;;;;5016706;28;20458;-69
2022/07/11 02:32:44;;;;;;;4.30;1.50;;;;;;;;;;5016090;28;20993;-70
2022/07/11 02:35:11;;;;;;;2.90;1.40;;;;;;;;;;5016515;28;20533;-69
2022/07/11 02:37:39;;;;;;;3.40;1.47;;;;;;;;;;5016406;28;20474;-69
2022/07/11 02:40:08;;;;;;;7.20;1.67;;;;;;;;;;5016230;28;20467;-68
2022/07/11 02:42:36;;;;;;;6.40;1.47;;;;;;;;;;5016648;28;20459;-69
2022/07/11 02:45:04;;;;;;;4.07;1.83;;;;;;;;;;5016180;28;20459;-69
2022/07/11 02:47:33;;;;;;;4.53;1.20;;;;;;;;;;5017329;28;20868;-69
2022/07/11 02:50:01;;;;;;;4.73;1.30;;;;;;;;;;5016232;28;20474;-69
2022/07/11 02:52:29;;;;;;;3.83;1.37;;;;;;;;;;5016847;28;20484;-69
2022/07/11 02:54:57;;;;;;;5.53;1.47;;;;;;;;;;5016324;28;20486;-68
2022/07/11 02:57:25;;;;;;;2.43;1.40;;;;;;;;;;5016129;28;20561;-68
2022/07/11 02:59:53;;;;;;;3.30;1.07;;;;;;;;;;5016404;28;20490;-70
2022/07/11 03:02:21;;;;;;;6.10;1.80;;;;;;;;;;5016675;28;20459;-70
2022/07/11 03:04:50;;;;;;;3.27;1.10;;;;;;;;;;5015194;28;20863;-70
2022/07/11 03:07:18;;;;;;;4.30;1.20;;;;;;;;;;5016065;28;20459;-69
2022/07/11 03:09:46;;;;;;;4.27;1.00;;;;;;;;;;5015962;28;20990;-69
2022/07/11 03:12:13;;;;;;;2.70;1.43;;;;;;;;;;5015457;28;20502;-69
2022/07/11 03:14:42;;;;;;;4.00;1.67;;;;;;;;;;5015757;28;20467;-70
2022/07/11 03:17:10;;;;;;;2.30;1.10;;;;;;;;;;5015110;28;20726;-69
2022/07/11 03:19:38;;;;;;;3.13;1.10;;;;;;;;;;5015768;28;20466;-70
2022/07/11 03:22:07;;;;;;;4.57;1.40;;;;;;;;;;5016184;28;20459;-69
2022/07/11 03:24:36;;;;;;;4.37;1.43;;;;;;;;;;5016213;28;20471;-69
2022/07/11 03:27:07;;;;;;;2.83;1.40;;;;;;;;;;5014727;28;20528;-69
2022/07/11 03:29:36;;;;;;;3.60;1.50;;;;;;;;;;5015371;28;20486;-69
2022/07/11 03:32:04;;;;;;;2.47;1.10;;;;;;;;;;5015538;28;20508;-69
2022/07/11 03:34:32;;;;;;;5.57;1.53;;;;;;;;;;5015544;28;20463;-69
2022/07/11 03:37:00;;;;;;;6.23;1.40;;;;;;;;;;5015722;28;20871;-70
2022/07/11 03:39:29;;;;;;;5.20;1.27;;;;;;;;;;5015781;28;20478;-70
2022/07/11 03:41:57;;;;;;;1.90;1.10;;;;;;;;;;5016727;28;20868;-70
2022/07/11 03:44:28;;;;;;;4.97;1.40;;;;;;;;;;5015101;28;20455;-70
2022/07/11 03:46:56;;;;;;;3.63;1.57;;;;;;;;;;5015474;28;20935;-69
2022/07/11 03:49:26;;;;;;;3.97;1.50;;;;;;;;;;5015345;28;20495;-70
2022/07/11 03:51:54;;;;;;;2.40;1.50;;;;;;;;;;5015106;28;20493;-70
2022/07/11 03:54:22;;;;;;;3.80;1.33;;;;;;;;;;5014999;28;20505;-69
2022/07/11 03:56:51;;;;;;;2.20;1.10;;;;;;;;;;5014992;28;20860;-69
2022/07/11 03:59:19;;;;;;;5.13;1.57;;;;;;;;;;5014992;28;20861;-70
2022/07/11 04:01:47;;;;;;;3.00;1.07;;;;;;;;;;5015141;28;20454;-69
2022/07/11 04:04:15;;;;;;;7.23;1.50;;;;;;;;;;5015605;28;20455;-69
2022/07/11 04:06:44;;;;;;;4.07;1.40;;;;;;;;;;5014888;28;20565;-69
2022/07/11 04:09:11;;;;;;;4.40;1.60;;;;;;;;;;5014765;28;20446;-69
2022/07/11 04:11:42;;;;;;;7.87;1.40;;;;;;;;;;5014766;28;20502;-69
2022/07/11 04:14:12;;;;;;;3.60;1.40;;;;;;;;;;5014636;28;20497;-69
2022/07/11 04:16:40;;;;;;;4.70;1.83;;;;;;;;;;5014946;28;20467;-69
2022/07/11 04:19:07;;;;;;;4.60;1.57;;;;;;;;;;5014738;28;20927;-69
2022/07/11 04:21:35;;;;;;;7.10;1.77;;;;;;;;;;5014828;28;20477;-69
2022/07/11 04:24:03;;;;;;;7.10;1.73;;;;;;;;;;5014542;28;20463;-69
2022/07/11 04:26:31;;;;;;;4.83;1.33;;;;;;;;;;5014975;28;20496;-70
2022/07/11 04:28:59;;;;;;;6.43;1.63;;;;;;;;;;5015564;28;20470;-70
2022/07/11 04:31:28;;;;;;;4.10;1.10;;;;;;;;;;5014705;28;20463;-69
2022/07/11 04:33:56;;;;;;;8.20;1.60;;;;;;;;;;5016044;28;20498;-70
2022/07/11 04:36:23;;;;;;;3.20;1.60;;;;;;;;;;5016094;28;20525;-69
2022/07/11 04:38:51;;;;;;;6.50;1.60;;;;;;;;;;5014088;28;20501;-69
2022/07/11 04:41:19;;;;;;;3.53;1.20;;;;;;;;;;5014577;28;20473;-69
2022/07/11 04:43:47;;;;;;;9.17;1.77;;;;;;;;;;5014831;28;20462;-70
2022/07/11 04:46:15;;;;;;;4.63;1.37;;;;;;;;;;5013936;28;20451;-70
2022/07/11 04:48:44;;;;;;;6.43;1.60;;;;;;;;;;5015138;28;20467;-72
2022/07/11 04:51:12;;;;;;;3.37;1.40;;;;;;;;;;5019689;28;20458;-71
2022/07/11 04:53:40;;;;;;;4.40;1.47;;;;;;;;;;5034035;28;20485;-70
2022/07/11 04:56:08;;;;;;;5.50;2.03;;;;;;;;;;5033748;28;20504;-69
2022/07/11 04:58:56;;;;;;;6.53;1.80;;;;;;;;;;5033561;28;20490;-70
2022/07/11 05:01:24;;;;;;;4.63;1.20;;;;;;;;;;5018738;28;20641;-69
2022/07/11 05:03:53;;;;;;;6.57;1.50;;;;;;;;;;5013919;28;20459;-69
2022/07/11 05:06:21;;;;;;;5.80;1.23;;;;;;;;;;5013270;28;20474;-70
2022/07/11 05:08:49;;;;;;;5.77;1.63;;;;;;;;;;5012780;28;20475;-70
2022/07/11 05:11:17;;;;;;;4.90;1.67;;;;;;;;;;5019737;28;20575;-70
2022/07/11 05:13:46;;;;;;;4.47;1.50;;;;;;;;;;5032473;28;20486;-70
2022/07/11 05:16:14;;;;;;;8.40;1.80;;;;;;;;;;5031810;28;20462;-70
2022/07/11 05:18:42;;;;;;;7.80;1.10;;;;;;;;;;5031607;28;20454;-68
2022/07/11 05:21:12;;;;;;;8.00;1.70;;;;;;;;;;5032440;28;20465;-69
2022/07/11 05:23:42;;;;;;;5.87;1.37;;;;;;;;;;5031972;28;20454;-70
2022/07/11 05:26:10;;;;;;;3.83;1.23;;;;;;;;;;5031951;28;21056;-69
2022/07/11 05:28:38;;;;;;;5.40;1.20;;;;;;;;;;5030516;28;20454;-69
2022/07/11 05:31:06;;;;;;;5.13;1.80;;;;;;;;;;5027093;28;20472;-70
2022/07/11 05:33:35;;;;;;;6.90;1.40;;;;;;;;;;5016796;28;20497;-69
2022/07/11 05:36:03;;;;;;;4.97;1.33;;;;;;;;;;5034012;28;20512;-69
2022/07/11 05:38:32;;;;;;;5.20;1.60;;;;;;;;;;5025535;28;20454;-70
2022/07/11 05:41:01;;;;;;;4.67;1.30;;;;;;;;;;5024910;28;20463;-70
2022/07/11 05:43:29;;;;;;;8.17;1.57;;;;;;;;;;5014480;28;20462;-69
2022/07/11 05:45:57;;;;;;;6.70;1.73;;;;;;;;;;5014055;28;20502;-70
2022/07/11 05:48:25;;;;;;;4.87;1.50;;;;;;;;;;5020599;28;20486;-69
2022/07/11 05:50:53;;;;;;;7.77;2.37;;;;;;;;;;5021685;28;20463;-70
2022/07/11 05:53:22;;;;;;;6.60;1.20;;;;;;;;;;5014097;28;20487;-69
2022/07/11 05:55:53;;;;;;;7.37;1.70;;;;;;;;;;5016128;28;20816;-69
2022/07/11 05:58:21;;;;;;;7.20;1.50;;;;;;;;;;5026635;28;20483;-69
2022/07/11 06:00:49;;;;;;;3.67;1.53;;;;;;;;;;5012905;28;20523;-68
2022/07/11 06:03:18;;;;;;;6.83;1.50;;;;;;;;;;5012817;28;20537;-70
2022/07/11 06:05:49;;;;;;;7.63;1.70;;;;;;;;;;5013954;28;20970;-70
2022/07/11 06:11:06;;;;;;;5.57;1.50;;;;;;;;;;5005009;28;20725;-70
2022/07/11 06:13:36;;;;;;;3.60;2.43;;;;;;;;;;5013126;28;20919;-70
2022/07/11 06:16:04;;;;;;;7.33;1.53;;;;;;;;;;5011617;28;20945;-68
2022/07/11 06:18:32;;;;;;;6.23;1.20;;;;;;;;;;5011661;28;20529;-69
2022/07/11 06:21:00;;;;;;;6.80;1.47;;;;;;;;;;5011411;28;20463;-68
2022/07/11 06:23:28;;;;;;;9.70;1.60;;;;;;;;;;5010943;28;20506;-70
2022/07/11 06:25:56;;;;;;;4.37;1.37;;;;;;;;;;5034440;28;20458;-70
2022/07/11 06:28:25;;;;;;;6.03;2.00;;;;;;;;;;5033318;28;20531;-70
2022/07/11 06:30:54;;;;;;;7.87;1.70;;;;;;;;;;5030071;28;20442;-70
2022/07/11 06:33:43;;;;;;;4.33;1.50;;;;;;;;;;5014468;28;20583;-70
2022/07/11 06:36:11;;;;;;;4.07;1.07;;;;;;;;;;5011829;28;20475;-70
2022/07/11 06:38:43;;;;;;;8.63;1.17;;;;;;;;;;5014374;28;20481;-69
2022/07/11 06:41:14;;;;;;;3.03;1.20;;;;;;;;;;5015405;28;20534;-70
2022/07/11 06:43:51;;;;;;;8.60;1.83;;;;;;;;;;5014023;28;20495;-70
2022/07/11 06:46:26;;;;;;;6.53;1.13;;;;;;;;;;5015302;28;20463;-69
2022/07/11 06:48:55;;;;;;;9.03;1.30;;;;;;;;;;5011921;28;20459;-69
2022/07/11 06:51:23;;;;;;;7.93;1.53;;;;;;;;;;5011073;28;20758;-69
2022/07/11 06:53:51;;;;;;;5.37;1.00;;;;;;;;;;5011629;28;20951;-68
2022/07/11 06:56:19;;;;;;;5.70;1.23;;;;;;;;;;5009997;28;20525;-69
2022/07/11 06:58:48;;;;;;;5.13;1.37;;;;;;;;;;5013699;28;20467;-69
2022/07/11 07:01:16;;;;;;;5.00;1.60;;;;;;;;;;5017561;28;20569;-68
2022/07/11 07:03:53;;;;;;;6.97;1.67;;;;;;;;;;5023233;28;20482;-68
2022/07/11 07:06:21;;;;;;;4.47;1.50;;;;;;;;;;5013532;28;20459;-69
2022/07/11 07:08:54;;;;;;;4.17;1.27;;;;;;;;;;5013806;28;20459;-70
2022/07/11 07:11:23;;;;;;;7.53;1.20;;;;;;;;;;5015685;28;20510;-70
2022/07/11 07:13:52;;;;;;;4.17;0.87;;;;;;;;;;5018345;28;20486;-69
2022/07/11 07:16:20;;;;;;;6.63;2.90;;;;;;;;;;5013723;28;20455;-70
2022/07/11 07:18:50;;;;;;;4.17;0.83;;;;;;;;;;5026078;28;20530;-70
2022/07/11 07:21:18;;;;;;;3.40;0.83;;;;;;;;;;5011997;28;20486;-70
2022/07/11 07:23:46;;;;;;;6.50;1.30;;;;;;;;;;5026645;28;20474;-70
2022/07/11 07:26:28;;;;;;;3.40;1.00;;;;;;;;;;5025020;28;20447;-70
2022/07/11 07:28:58;;;;;;;3.23;1.10;;;;;;;;;;5017938;28;21063;-70
2022/07/11 07:31:26;;;;;;;2.50;1.10;;;;;;;;;;5027650;28;20550;-70
2022/07/11 07:33:54;;;;;;;7.50;1.13;;;;;;;;;;5021617;28;20544;-71
2022/07/11 07:36:22;;;;;;;5.73;1.20;;;;;;;;;;5017291;28;20886;-70
2022/07/11 07:38:53;;;;;;;7.90;1.33;;;;;;;;;;5016656;28;20474;-71
2022/07/11 07:41:21;;;;;;;4.43;0.90;;;;;;;;;;5010425;28;20541;-70
2022/07/11 07:43:51;;;;;;;3.70;1.10;;;;;;;;;;5025227;28;20560;-71
2022/07/11 07:46:20;;;;;;;9.73;1.80;;;;;;;;;;5017878;28;20822;-70
2022/07/11 07:48:59;;;;;;;2.60;0.90;;;;;;;;;;5016507;28;20473;-71
2022/07/11 07:51:30;;;;;;;2.53;1.03;;;;;;;;;;5014076;28;20522;-70
2022/07/11 07:54:01;;;;;;;3.90;1.30;;;;;;;;;;5013241;28;20482;-70
2022/07/11 07:56:30;;;;;;;2.80;1.00;;;;;;;;;;5028250;28;20459;-70
2022/07/11 07:58:59;;;;;;;4.33;0.90;;;;;;;;;;5021320;28;20481;-69
2022/07/11 08:01:40;;;;;;;7.97;1.10;;;;;;;;;;5014086;28;20529;-70
2022/07/11 08:04:09;;;;;;;3.93;0.97;;;;;;;;;;5012475;28;20463;-70
2022/07/11 08:06:42;;;;;;;7.43;1.30;;;;;;;;;;5015691;28;20914;-70
2022/07/11 08:09:15;;;;;;;3.17;1.50;;;;;;;;;;5022807;28;20549;-69
2022/07/11 08:11:47;;;;;;;7.10;0.80;;;;;;;;;;5013631;28;20481;-69
2022/07/11 08:14:22;;;;;;;2.73;1.00;;;;;;;;;;5012561;28;20486;-69
2022/07/11 08:17:00;;;;;;;6.33;1.13;;;;;;;;;;5012012;28;20466;-69
2022/07/11 08:19:33;;;;;;;4.43;0.97;;;;;;;;;;5015505;28;20451;-69
2022/07/11 08:22:02;;;;;;;3.10;0.83;;;;;;;;;;5043561;28;20490;-68
2022/07/11 08:24:37;;;;;;;4.03;1.20;;;;;;;;;;5020018;28;20471;-69
2022/07/11 08:27:08;;;;;;;2.10;0.80;;;;;;;;;;5013700;28;20459;-69
2022/07/11 08:29:36;;;;;;;4.33;0.90;;;;;;;;;;5011887;28;20548;-68
2022/07/11 08:32:12;;;;;;;3.80;1.30;;;;;;;;;;5013405;28;20915;-68
2022/07/11 08:34:41;;;;;;;2.50;0.90;;;;;;;;;;5011319;28;20495;-69
2022/07/11 08:37:09;;;;;;;4.60;1.10;;;;;;;;;;5010860;28;20459;-69
2022/07/11 08:39:37;;;;;;;4.63;1.70;;;;;;;;;;5011743;28;20499;-69
2022/07/11 08:42:09;;;;;;;2.77;1.43;;;;;;;;;;5013955;28;20521;-67
2022/07/11 08:44:37;;;;;;;3.40;1.13;;;;;;;;;;5025255;28;20966;-68
2022/07/11 08:47:10;;;;;;;5.70;1.10;;;;;;;;;;5021653;28;20469;-69
2022/07/11 08:49:40;;;;;;;2.30;1.00;;;;;;;;;;5017622;28;20482;-69
2022/07/11 08:52:09;;;;;;;2.10;1.07;;;;;;;;;;5014153;28;20558;-69
2022/07/11 08:54:37;;;;;;;5.20;1.00;;;;;;;;;;5016516;28;20517;-69
2022/07/11 08:57:05;;;;;;;5.87;2.13;;;;;;;;;;5011711;28;20471;-69
2022/07/11 08:59:36;;;;;;;5.13;1.50;;;;;;;;;;5013386;28;20533;-69
2022/07/11 09:02:13;;;;;;;6.63;2.20;;;;;;;;;;5016959;28;20502;-70
2022/07/11 09:08:06;;;;;;;3.83;1.07;;;;;;;;;;5017649;28;20489;-69
2022/07/11 09:10:34;;;;;;;2.33;0.80;;;;;;;;;;5019866;28;20482;-70
2022/07/11 09:13:04;;;;;;;4.57;1.10;;;;;;;;;;5017292;28;20855;-69
2022/07/11 09:15:33;;;;;;;4.20;1.17;;;;;;;;;;5016542;28;20490;-68
2022/07/11 09:18:13;;;;;;;3.90;1.00;;;;;;;;;;5013886;28;20498;-70
2022/07/11 09:26:57;;;;;;;3.97;0.80;;;;;;;;;;4999781;28;20536;-70
2022/07/11 09:29:28;;;;;;;3.20;1.00;;;;;;;;;;5021343;28;20454;-70
2022/07/11 09:31:59;;;;;;;4.33;1.00;;;;;;;;;;5016646;28;20554;-69
2022/07/11 09:34:30;;;;;;;2.77;0.87;;;;;;;;;;5024228;28;20585;-71
2022/07/11 09:37:00;;;;;;;3.23;1.00;;;;;;;;;;5021353;28;20473;-70
2022/07/11 09:39:45;;;;;;;2.60;0.90;;;;;;;;;;5016468;28;20501;-69
2022/07/11 09:42:15;;;;;;;2.73;0.80;;;;;;;;;;5016519;28;20805;-70
2022/07/11 09:44:50;;;;;;;3.13;0.77;;;;;;;;;;5017028;28;20533;-69
2022/07/11 09:47:22;;;;;;;4.63;1.00;;;;;;;;;;5015240;28;20489;-69
2022/07/11 09:50:05;;;;;;;2.70;0.93;;;;;;;;;;5012150;28;21078;-70
2022/07/11 09:52:33;;;;;;;2.87;0.70;;;;;;;;;;5015246;28;20481;-69
2022/07/11 09:55:08;;;;;;;2.50;0.97;;;;;;;;;;5028600;28;20498;-71
2022/07/11 09:57:40;;;;;;;3.40;1.00;;;;;;;;;;5016381;28;20560;-69
2022/07/11 10:00:18;;;;;;;5.30;1.30;;;;;;;;;;5014998;28;20471;-70
2022/07/11 10:02:59;;;;;;;3.00;1.27;;;;;;;;;;5018782;28;20469;-69
2022/07/11 10:05:39;;;;;;;6.30;1.50;;;;;;;;;;5014511;28;20590;-70
2022/07/11 10:08:13;;;;;;;3.53;0.90;;;;;;;;;;5023710;28;20458;-70
2022/07/11 10:10:47;;;;;;;4.27;0.90;;;;;;;;;;5017509;28;20876;-71
2022/07/11 10:13:16;;;;;;;5.20;1.60;;;;;;;;;;5025268;28;20548;-68
2022/07/11 10:16:11;;;;;;;1.90;0.70;;;;;;;;;;5022816;28;20790;-71
2022/07/11 10:18:47;;;;;;;2.00;0.80;;;;;;;;;;5028950;28;20465;-70
2022/07/11 10:21:20;;;;;;;4.63;2.67;;;;;;;;;;5024864;28;20470;-70
2022/07/11 10:23:57;;;;;;;2.20;0.80;;;;;;;;;;5016556;28;20463;-69
2022/07/11 10:26:32;;;;;;;2.93;0.80;;;;;;;;;;5021154;28;20482;-70
2022/07/11 10:29:03;;;;;;;3.93;1.07;;;;;;;;;;5015350;28;20459;-71
2022/07/11 10:31:33;;;;;;;3.00;0.70;;;;;;;;;;5024464;28;20565;-70
2022/07/11 10:34:18;;;;;;;2.57;0.70;;;;;;;;;;5024398;28;20978;-70
2022/07/11 10:36:48;;;;;;;2.40;0.97;;;;;;;;;;5021048;28;20941;-70
2022/07/11 10:39:21;;;;;;;4.60;0.97;;;;;;;;;;5022328;28;20552;-70
2022/07/11 10:41:49;;;;;;;3.37;0.90;;;;;;;;;;5017116;28;20473;-70
2022/07/11 10:44:17;;;;;;;4.20;0.90;;;;;;;;;;5012118;28;20463;-70
2022/07/11 10:46:45;;;;;;;3.30;0.90;;;;;;;;;;5018979;28;20474;-69
2022/07/11 10:49:18;;;;;;;3.93;0.90;;;;;;;;;;5026564;28;20473;-70
2022/07/11 10:52:05;;;;;;;2.90;1.63;;;;;;;;;;5020881;28;20561;-69
2022/07/11 10:54:38;;;;;;;3.17;0.90;;;;;;;;;;5018619;28;20512;-70
2022/07/11 10:57:14;;;;;;;5.13;1.10;;;;;;;;;;5018227;28;20468;-70
2022/07/11 11:00:01;;;;;;;5.93;1.20;;;;;;;;;;5017898;28;20870;-70
2022/07/11 11:02:29;;;;;;;3.70;1.00;;;;;;;;;;5012844;28;20471;-71
2022/07/11 11:05:00;;;;;;;4.80;1.20;;;;;;;;;;5016523;28;20470;-71
2022/07/11 11:07:43;;;;;;;3.23;1.10;;;;;;;;;;5020929;28;20467;-71
2022/07/11 11:10:33;;;;;;;4.93;1.23;;;;;;;;;;5011869;28;20555;-72
2022/07/11 11:13:23;;;;;;;4.17;0.80;;;;;;;;;;5023220;28;20462;-71
2022/07/11 11:16:03;;;;;;;2.23;0.97;;;;;;;;;;5019301;28;20492;-71
2022/07/11 11:18:35;;;;;;;2.73;0.90;;;;;;;;;;5023005;28;20532;-71
2022/07/11 11:21:22;;;;;;;2.30;0.90;;;;;;;;;;5014645;28;20881;-71
2022/07/11 11:24:09;;;;;;;2.60;1.10;;;;;;;;;;5013093;28;20470;-71
2022/07/11 11:26:49;;;;;;;2.57;0.97;;;;;;;;;;5024383;28;20552;-71
2022/07/11 11:29:24;;;;;;;2.53;1.00;;;;;;;;;;5013781;28;20481;-71
2022/07/11 11:32:37;;;;;;;;;;;;;;;;;;;;;
2022/07/11 11:35:07;;;;;;;2.83;0.83;;;;;;;;;;5011177;28;20492;-70
2022/07/11 11:37:37;;;;;;;2.13;0.90;;;;;;;;;;5012126;28;20467;-70
2022/07/11 11:40:08;;;;;;;3.43;1.30;;;;;;;;;;5013267;28;20478;-71
2022/07/11 11:42:38;;;;;;;2.60;1.10;;;;;;;;;;5016224;28;20464;-71
2022/07/11 11:45:07;;;;;;;3.40;1.17;;;;;;;;;;5031564;28;20502;-71
2022/07/11 11:47:38;;;;;;;3.03;0.80;;;;;;;;;;5026861;28;20463;-70
2022/07/11 11:50:10;;;;;;;2.33;0.70;;;;;;;;;;5022028;28;20661;-70
2022/07/11 11:52:39;;;;;;;2.57;0.90;;;;;;;;;;5013078;28;20477;-72
2022/07/11 11:55:11;;;;;;;3.20;0.90;;;;;;;;;;5015426;28;20498;-70
2022/07/11 11:57:45;;;;;;;3.40;1.13;;;;;;;;;;5017337;28;20482;-72
2022/07/11 12:00:30;;;;;;;24.63;3.07;;;;;;;;;;5027418;28;20579;-71
2022/07/11 12:02:58;;;;;;;2.10;0.60;;;;;;;;;;5018756;28;20459;-70
2022/07/11 12:05:27;;;;;;;1.90;0.70;;;;;;;;;;5015985;28;20586;-70
2022/07/11 12:07:58;;;;;;;3.87;1.07;;;;;;;;;;5027633;28;20549;-70
2022/07/11 12:10:28;;;;;;;4.43;1.00;;;;;;;;;;5013091;28;20566;-71
2022/07/11 12:12:58;;;;;;;3.00;0.93;;;;;;;;;;5010839;28;20493;-71
2022/07/11 12:15:33;;;;;;;2.97;0.83;;;;;;;;;;5015070;28;20584;-71
2022/07/11 12:18:03;;;;;;;1.80;0.80;;;;;;;;;;5012145;28;20486;-71
2022/07/11 12:20:38;;;;;;;2.57;0.90;;;;;;;;;;5014499;28;20523;-71
2022/07/11 12:23:07;;;;;;;2.37;0.90;;;;;;;;;;5019115;28;20494;-70
2022/07/11 12:25:37;;;;;;;1.50;0.60;;;;;;;;;;5017427;28;20833;-70
2022/07/11 12:28:07;;;;;;;2.50;1.00;;;;;;;;;;5010711;28;20458;-71
2022/07/11 12:30:48;;;;;;;2.10;0.80;;;;;;;;;;5012208;28;20504;-72
2022/07/11 12:33:17;;;;;;;3.03;0.90;;;;;;;;;;5013551;28;20453;-71
2022/07/11 12:36:12;;;;;;;3.17;0.67;;;;;;;;;;5011003;28;20509;-71
2022/07/11 12:38:55;;;;;;;1.87;0.80;;;;;;;;;;5000451;28;20907;-71
2022/07/11 12:41:32;;;;;;;2.50;1.00;;;;;;;;;;5018668;28;20470;-71
2022/07/11 12:47:17;;;;;;;2.30;0.80;;;;;;;;;;5032587;28;20484;-71
2022/07/11 12:50:00;;;;;;;5.83;0.80;;;;;;;;;;5015783;28;20473;-71
2022/07/11 12:52:41;;;;;;;1.90;0.80;;;;;;;;;;5024663;28;20462;-70
2022/07/11 12:55:11;;;;;;;1.80;0.80;;;;;;;;;;5021193;28;20513;-71
2022/07/11 12:57:41;;;;;;;3.37;1.00;;;;;;;;;;5014288;28;20533;-70
2022/07/11 13:00:16;;;;;;;4.93;1.27;;;;;;;;;;5017937;28;20466;-71
2022/07/11 13:02:53;;;;;;;3.00;0.97;;;;;;;;;;5022307;28;20462;-71
2022/07/11 13:05:22;;;;;;;3.27;1.23;;;;;;;;;;5025501;28;20714;-70
2022/07/11 13:11:02;;;;;;;3.80;0.90;;;;;;;;;;5021837;28;20620;-71
2022/07/11 13:13:37;;;;;;;2.43;0.70;;;;;;;;;;5031926;28;20454;-71
2022/07/11 13:16:07;;;;;;;1.90;0.80;;;;;;;;;;5024146;28;20485;-70
2022/07/11 13:18:35;;;;;;;1.47;0.63;;;;;;;;;;5033289;28;20470;-71
2022/07/11 13:21:09;;;;;;;1.70;0.70;;;;;;;;;;5033679;28;20473;-70
2022/07/11 13:23:38;;;;;;;2.43;1.07;;;;;;;;;;5017406;28;20463;-70
2022/07/11 13:26:06;;;;;;;2.23;0.80;;;;;;;;;;5021049;28;20458;-71
2022/07/11 13:28:38;;;;;;;3.03;1.10;;;;;;;;;;5021039;28;20914;-71
2022/07/11 13:31:08;;;;;;;2.70;0.60;;;;;;;;;;5020752;28;20478;-71
2022/07/11 13:33:38;;;;;;;1.80;0.70;;;;;;;;;;5034503;28;20465;-71
2022/07/11 13:36:06;;;;;;;3.70;0.80;;;;;;;;;;5028192;28;20566;-72
2022/07/11 13:38:34;;;;;;;1.90;0.80;;;;;;;;;;5015027;28;20451;-71
2022/07/11 13:41:10;;;;;;;1.60;0.70;;;;;;;;;;5015802;28;20943;-71
2022/07/11 13:43:40;;;;;;;2.23;0.93;;;;;;;;;;5019462;28;20466;-71
2022/07/11 13:46:11;;;;;;;2.73;1.00;;;;;;;;;;5015306;28;20545;-71
2022/07/11 13:48:42;;;;;;;2.70;0.90;;;;;;;;;;5020098;28;20474;-71
2022/07/11 13:51:10;;;;;;;2.90;1.10;;;;;;;;;;5016207;28;20558;-71
2022/07/11 13:53:40;;;;;;;3.20;1.13;;;;;;;;;;5012766;28;20497;-72
2022/07/11 13:56:13;;;;;;;1.90;0.90;;;;;;;;;;5013034;28;20487;-71
2022/07/11 13:58:48;;;;;;;2.37;0.90;;;;;;;;;;5012811;28;20569;-71
2022/07/11 14:01:16;;;;;;;3.50;1.30;;;;;;;;;;5021052;28;20535;-72
2022/07/11 14:03:46;;;;;;;1.80;1.20;;;;;;;;;;5017926;28;20458;-71
2022/07/11 14:06:16;;;;;;;1.90;1.03;;;;;;;;;;5015657;28;21232;-73
2022/07/11 14:08:45;;;;;;;2.37;1.20;;;;;;;;;;5020450;28;20773;-70
2022/07/11 14:11:13;;;;;;;3.47;1.00;;;;;;;;;;5016515;28;20927;-72
2022/07/11 14:13:52;;;;;;;2.17;1.03;;;;;;;;;;5017034;28;20906;-72
2022/07/11 14:16:24;;;;;;;2.10;1.30;;;;;;;;;;5017258;28;20536;-70
2022/07/11 14:18:52;;;;;;;2.00;0.80;;;;;;;;;;5017032;28;20767;-72
2022/07/11 14:21:23;;;;;;;3.30;1.00;;;;;;;;;;5014832;28;20463;-71
2022/07/11 14:23:54;;;;;;;2.40;0.97;;;;;;;;;;5013448;28;20463;-72
2022/07/11 14:26:23;;;;;;;2.43;1.10;;;;;;;;;;5013620;28;21004;-71
2022/07/11 14:28:55;;;;;;;3.07;1.03;;;;;;;;;;5012432;28;20463;-72
2022/07/11 14:31:24;;;;;;;2.47;0.90;;;;;;;;;;5015248;28;20777;-70
2022/07/11 14:33:52;;;;;;;2.13;0.90;;;;;;;;;;5013186;28;20463;-71
2022/07/11 14:36:27;;;;;;;3.10;1.00;;;;;;;;;;5015944;28;20487;-71
2022/07/11 14:38:55;;;;;;;2.13;1.00;;;;;;;;;;5022120;28;20467;-70
2022/07/11 14:41:27;;;;;;;1.60;0.80;;;;;;;;;;5020179;28;20559;-71
2022/07/11 14:44:28;;;;;;;1.90;0.97;;;;;;;;;;5009328;28;20478;-70
2022/07/11 14:47:04;;;;;;;2.33;0.93;;;;;;;;;;5020733;28;20476;-71
2022/07/11 14:49:41;;;;;;;3.47;0.77;;;;;;;;;;5017476;28;20487;-71
2022/07/11 14:52:09;;;;;;;2.63;0.93;;;;;;;;;;5013834;28;20470;-70
2022/07/11 14:54:40;;;;;;;4.67;2.40;;;;;;;;;;5014956;28;20478;-69
2022/07/11 14:57:14;;;;;;;2.77;0.93;;;;;;;;;;5016957;28;20493;-69
2022/07/11 14:59:44;;;;;;;3.37;1.00;;;;;;;;;;5012170;28;20469;-70
2022/07/11 15:02:13;;;;;;;1.70;0.80;;;;;;;;;;5016033;28;20454;-71
2022/07/11 15:04:42;;;;;;;3.07;1.30;;;;;;;;;;5021272;28;20789;-71
2022/07/11 15:12:43;;;;;;;2.07;1.00;;;;;;;;;;5012802;28;20466;-71
2022/07/11 15:15:12;;;;;;;2.10;0.90;;;;;;;;;;5012236;28;21191;-71
2022/07/11 15:17:41;;;;;;;3.80;0.90;;;;;;;;;;5025281;28;20447;-71
2022/07/11 15:20:10;;;;;;;3.43;0.97;;;;;;;;;;5033650;28;20544;-71
2022/07/11 15:22:39;;;;;;;2.10;1.10;;;;;;;;;;5030917;28;20466;-71
2022/07/11 15:25:08;;;;;;;2.17;0.93;;;;;;;;;;5030907;28;20893;-71
2022/07/11 15:27:37;;;;;;;2.60;1.73;;;;;;;;;;5019856;28;20557;-71
2022/07/11 15:30:06;;;;;;;1.80;1.00;;;;;;;;;;5022911;28;20471;-71
2022/07/11 15:32:35;;;;;;;2.50;1.03;;;;;;;;;;5026807;28;20474;-72